createdAt,value
2018-12-10T00:01:42.350Z,6.20
2018-12-10T00:04:10.501Z,6.20
2018-12-10T00:06:37.734Z,6.30
2018-12-10T00:09:05.546Z,6.10
2018-12-10T00:11:32.854Z,6.10
2018-12-10T00:14:00.067Z,5.90
2018-12-10T00:16:27.370Z,5.60
2018-12-10T00:18:54.751Z,5.30
2018-12-10T00:21:21.970Z,5.20
2018-12-10T00:23:49.159Z,5.20
2018-12-10T00:26:16.374Z,5.10
2018-12-10T00:28:43.634Z,5.00
2018-12-10T00:31:10.826Z,5.00
2018-12-10T00:33:38.006Z,5.00
2018-12-10T00:36:05.294Z,5.00
2018-12-10T00:38:32.634Z,5.00
2018-12-10T00:40:59.874Z,5.00
2018-12-10T00:43:27.081Z,5.00
2018-12-10T00:45:54.277Z,5.00
2018-12-10T00:48:21.512Z,5.00
2018-12-10T00:50:48.706Z,5.00
2018-12-10T00:53:15.898Z,5.00
2018-12-10T00:55:43.138Z,4.90
2018-12-10T00:58:10.394Z,4.90
2018-12-10T01:00:37.818Z,4.90
2018-12-10T01:03:05.055Z,4.90
2018-12-10T01:05:32.418Z,4.90
2018-12-10T01:07:59.769Z,4.80
2018-12-10T01:10:26.950Z,4.80
2018-12-10T01:12:54.128Z,4.80
2018-12-10T01:15:21.442Z,4.80
2018-12-10T01:17:48.694Z,4.80
2018-12-10T01:20:15.881Z,4.80
2018-12-10T01:22:43.062Z,4.80
2018-12-10T01:25:10.426Z,4.80
2018-12-10T01:27:37.628Z,4.80
2018-12-10T01:30:06.629Z,4.80
2018-12-10T01:32:33.845Z,4.70
2018-12-10T01:35:01.051Z,4.70
2018-12-10T01:37:28.526Z,4.70
2018-12-10T01:39:55.733Z,4.70
2018-12-10T01:42:22.942Z,4.70
2018-12-10T01:44:50.133Z,4.70
2018-12-10T01:47:17.350Z,4.70
2018-12-10T01:49:44.534Z,4.80
2018-12-10T01:52:11.734Z,4.70
2018-12-10T01:54:38.922Z,4.70
2018-12-10T01:57:06.133Z,4.70
2018-12-10T01:59:33.333Z,4.70
2018-12-10T02:02:00.539Z,4.80
2018-12-10T02:04:27.738Z,4.80
2018-12-10T02:06:54.954Z,4.70
2018-12-10T02:09:22.186Z,4.70
2018-12-10T02:11:49.378Z,4.70
2018-12-10T02:14:16.618Z,4.70
2018-12-10T02:16:43.793Z,4.70
2018-12-10T02:19:11.081Z,4.80
2018-12-10T02:21:38.329Z,4.80
2018-12-10T02:24:05.526Z,4.90
2018-12-10T02:26:32.714Z,4.90
2018-12-10T02:29:05.608Z,4.90
2018-12-10T02:31:32.788Z,5.00
2018-12-10T02:34:00.418Z,5.00
2018-12-10T02:36:27.607Z,5.10
2018-12-10T02:38:54.812Z,5.10
2018-12-10T02:41:22.199Z,5.10
2018-12-10T02:43:49.530Z,5.10
2018-12-10T02:46:16.721Z,5.10
2018-12-10T02:48:43.919Z,5.10
2018-12-10T02:51:11.192Z,5.10
2018-12-10T02:53:38.406Z,5.10
2018-12-10T02:56:05.886Z,5.00
2018-12-10T02:58:33.072Z,5.10
2018-12-10T03:01:00.291Z,5.00
2018-12-10T03:03:27.671Z,5.00
2018-12-10T03:05:54.852Z,4.80
2018-12-10T03:08:22.054Z,4.70
2018-12-10T03:10:49.286Z,4.50
2018-12-10T04:20:02.993Z,4.00
2018-12-10T04:24:57.396Z,3.70
2018-12-10T04:27:24.682Z,3.30
2018-12-10T04:29:51.847Z,3.20
2018-12-10T04:32:19.010Z,3.20
2018-12-10T04:34:46.203Z,3.20
2018-12-10T04:37:13.392Z,3.10
2018-12-10T04:39:40.665Z,3.10
2018-12-10T04:42:07.966Z,3.00
2018-12-10T04:44:35.175Z,2.90
2018-12-10T04:47:02.517Z,3.00
2018-12-10T04:49:29.693Z,2.90
2018-12-10T04:51:56.938Z,2.90
2018-12-10T04:54:24.230Z,2.90
2018-12-10T04:56:58.033Z,2.80
2018-12-10T04:59:25.206Z,2.80
2018-12-10T05:01:52.400Z,3.00
2018-12-10T05:04:19.605Z,3.00
2018-12-10T05:06:46.771Z,2.90
2018-12-10T05:09:13.949Z,3.00
2018-12-10T05:11:41.246Z,3.00
2018-12-10T05:14:08.446Z,3.10
2018-12-10T05:16:35.656Z,3.10
2018-12-10T05:19:03.019Z,3.20
2018-12-10T05:21:30.195Z,3.10
2018-12-10T05:23:57.398Z,3.20
2018-12-10T05:26:24.577Z,3.20
2018-12-10T05:28:51.810Z,3.20
2018-12-10T05:31:19.042Z,3.30
2018-12-10T05:33:46.262Z,3.30
2018-12-10T05:36:13.462Z,3.20
2018-12-10T05:38:40.678Z,3.30
2018-12-10T05:41:07.877Z,3.50
2018-12-10T05:43:35.122Z,3.40
2018-12-10T05:46:02.304Z,3.30
2018-12-10T05:48:29.561Z,3.30
2018-12-10T05:50:56.967Z,3.40
2018-12-10T05:53:24.305Z,3.30
2018-12-10T05:55:51.530Z,3.30
2018-12-10T05:58:18.889Z,3.40
2018-12-10T06:00:46.210Z,3.40
2018-12-10T06:03:13.387Z,3.40
2018-12-10T06:05:40.642Z,3.50
2018-12-10T06:08:07.830Z,3.60
2018-12-10T06:10:35.075Z,3.60
2018-12-10T06:13:02.258Z,3.50
2018-12-10T06:15:29.451Z,3.60
2018-12-10T06:17:56.654Z,3.70
2018-12-10T06:20:23.818Z,3.60
2018-12-10T06:22:51.050Z,3.70
2018-12-10T06:25:18.258Z,3.60
2018-12-10T06:27:45.547Z,3.60
2018-12-10T06:30:13.190Z,3.50
2018-12-10T06:32:40.367Z,3.40
2018-12-10T06:35:07.678Z,3.50
2018-12-10T06:37:37.664Z,3.50
2018-12-10T06:40:05.042Z,3.40
2018-12-10T06:42:32.259Z,3.40
2018-12-10T06:44:59.537Z,3.40
2018-12-10T06:47:26.897Z,3.30
2018-12-10T06:49:54.111Z,3.30
2018-12-10T06:52:21.310Z,3.20
2018-12-10T06:54:48.502Z,3.30
2018-12-10T06:57:15.717Z,3.30
2018-12-10T06:59:42.890Z,3.30
2018-12-10T07:02:10.114Z,3.30
2018-12-10T07:04:37.295Z,3.30
2018-12-10T07:07:04.623Z,3.20
2018-12-10T07:09:31.822Z,3.30
2018-12-10T07:11:59.018Z,3.30
2018-12-10T07:14:26.226Z,3.30
2018-12-10T07:16:54.541Z,3.20
2018-12-10T07:19:21.861Z,3.40
2018-12-10T07:21:49.178Z,3.40
2018-12-10T07:24:16.404Z,3.40
2018-12-10T07:26:43.605Z,3.40
2018-12-10T07:29:10.899Z,3.10
2018-12-10T07:31:38.134Z,3.50
2018-12-10T07:34:05.353Z,3.50
2018-12-10T07:36:32.550Z,3.40
2018-12-10T07:38:59.718Z,3.50
2018-12-10T07:41:27.026Z,3.50
2018-12-10T07:43:54.218Z,3.50
2018-12-10T07:46:21.418Z,3.60
2018-12-10T07:48:48.611Z,3.60
2018-12-10T07:51:15.853Z,3.60
2018-12-10T07:53:43.454Z,3.60
2018-12-10T07:56:10.658Z,4.00
2018-12-10T07:58:37.837Z,3.80
2018-12-10T08:01:05.306Z,3.90
2018-12-10T08:03:32.515Z,4.00
2018-12-10T08:05:59.731Z,3.90
2018-12-10T08:08:27.275Z,3.90
2018-12-10T08:10:54.449Z,4.20
2018-12-10T08:15:48.850Z,4.20
2018-12-10T08:20:43.435Z,4.20
2018-12-10T08:23:10.950Z,4.30
2018-12-10T08:25:38.157Z,4.20
2018-12-10T08:28:05.498Z,4.30
2018-12-10T08:30:32.830Z,4.40
2018-12-10T08:33:00.035Z,4.30
2018-12-10T08:35:27.372Z,4.30
2018-12-10T08:37:54.830Z,4.30
2018-12-10T08:40:22.129Z,4.20
2018-12-10T08:42:49.454Z,4.20
2018-12-10T08:45:16.910Z,4.30
2018-12-10T08:47:44.214Z,4.30
2018-12-10T08:50:11.553Z,4.50
2018-12-10T08:52:38.750Z,4.40
2018-12-10T08:55:05.946Z,4.50
2018-12-10T08:57:33.168Z,4.50
2018-12-10T09:00:00.365Z,4.60
2018-12-10T09:04:54.812Z,5.30
2018-12-10T09:09:49.367Z,6.30
2018-12-10T09:12:16.715Z,7.00
2018-12-10T09:14:43.931Z,6.70
2018-12-10T09:17:11.122Z,6.20
2018-12-10T09:19:38.735Z,5.80
2018-12-10T09:44:13.629Z,7.00
2018-12-10T09:46:40.940Z,7.80
2018-12-10T09:51:35.586Z,8.30
2018-12-10T09:54:03.044Z,7.30
2018-12-10T10:08:49.641Z,5.60
2018-12-10T10:13:45.237Z,4.80
2018-12-10T10:16:12.573Z,4.80
2018-12-10T10:18:39.783Z,4.80
2018-12-10T10:21:11.361Z,5.00
2018-12-10T10:23:36.430Z,4.90
2018-12-10T10:26:03.799Z,5.10
2018-12-10T10:28:31.007Z,5.10
2018-12-10T10:30:58.247Z,5.20
2018-12-10T10:33:32.321Z,5.10
2018-12-10T10:35:54.686Z,5.20
2018-12-10T10:38:22.277Z,5.30
2018-12-10T10:40:49.498Z,5.70
2018-12-10T10:43:16.730Z,5.30
2018-12-10T10:48:11.278Z,4.80
2018-12-10T10:50:38.470Z,4.60
2018-12-10T10:53:06.111Z,4.60
2018-12-10T10:55:33.292Z,4.80
2018-12-10T10:58:00.670Z,4.90
2018-12-10T11:00:33.667Z,5.00
2018-12-10T11:03:03.827Z,5.00
2018-12-10T11:05:31.082Z,5.20
2018-12-10T11:07:58.270Z,5.10
2018-12-10T11:10:25.517Z,5.20
2018-12-10T11:12:52.733Z,5.10
2018-12-10T11:15:20.102Z,5.10
2018-12-10T11:17:47.338Z,5.20
2018-12-10T11:20:14.528Z,5.10
2018-12-10T11:22:41.767Z,5.10
2018-12-10T11:25:09.214Z,5.00
2018-12-10T11:27:36.551Z,5.00
2018-12-10T11:30:04.691Z,5.00
2018-12-10T11:32:32.034Z,5.10
2018-12-10T11:34:59.217Z,5.20
2018-12-10T11:37:26.453Z,5.20
2018-12-10T11:39:53.667Z,5.20
2018-12-10T11:42:20.873Z,5.40
2018-12-10T11:44:48.538Z,5.30
2018-12-10T11:47:15.730Z,5.50
2018-12-10T12:04:26.608Z,5.40
2018-12-10T12:06:53.778Z,5.30
2018-12-10T12:09:21.134Z,5.20
2018-12-10T12:11:48.353Z,5.10
2018-12-10T12:14:15.567Z,5.20
2018-12-10T12:16:42.920Z,4.90
2018-12-10T12:19:11.369Z,4.50
2018-12-10T12:21:39.049Z,4.40
2018-12-10T12:24:06.230Z,4.40
2018-12-10T12:26:33.478Z,4.40
2018-12-10T12:29:00.673Z,4.40
2018-12-10T12:31:27.907Z,4.30
2018-12-10T12:33:55.434Z,4.20
2018-12-10T12:36:22.987Z,4.10
2018-12-10T12:38:50.237Z,4.00
2018-12-10T12:41:17.422Z,3.90
2018-12-10T12:43:44.618Z,4.00
2018-12-10T12:46:11.811Z,4.00
2018-12-10T12:48:39.004Z,4.00
2018-12-10T12:51:06.325Z,4.10
2018-12-10T12:53:34.421Z,4.20
2018-12-10T12:56:01.795Z,4.20
2018-12-10T12:58:29.122Z,4.30
2018-12-10T13:00:59.886Z,4.40
2018-12-10T13:03:25.663Z,4.60
2018-12-10T13:05:53.102Z,4.80
2018-12-10T13:08:20.426Z,4.90
2018-12-10T13:10:47.618Z,5.00
2018-12-10T13:13:14.813Z,5.00
2018-12-10T13:15:42.048Z,5.10
2018-12-10T13:18:09.317Z,5.10
2018-12-10T13:20:36.522Z,5.20
2018-12-10T13:23:03.718Z,5.30
2018-12-10T13:25:30.932Z,5.40
2018-12-10T13:30:25.542Z,5.50
2018-12-10T13:32:52.885Z,5.50
2018-12-10T13:37:48.118Z,6.80
2018-12-10T13:40:15.435Z,6.40
2018-12-10T13:42:42.646Z,6.10
2018-12-10T13:45:09.887Z,5.90
2018-12-10T13:47:37.104Z,5.70
2018-12-10T13:50:04.607Z,5.60
2018-12-10T13:52:31.810Z,5.40
2018-12-10T13:54:59.183Z,5.30
2018-12-10T13:57:26.498Z,5.00
2018-12-10T13:59:53.701Z,5.00
2018-12-10T14:02:21.003Z,4.90
2018-12-10T14:08:25.602Z,4.90
2018-12-10T14:10:52.839Z,4.90
2018-12-10T14:13:20.072Z,4.90
2018-12-10T14:15:47.362Z,4.70
2018-12-10T14:18:14.689Z,4.70
2018-12-10T14:20:41.861Z,4.60
2018-12-10T14:23:09.215Z,4.60
2018-12-10T14:25:36.406Z,4.60
2018-12-10T14:28:03.966Z,4.50
2018-12-10T14:32:58.435Z,4.20
2018-12-10T14:35:25.649Z,4.30
2018-12-10T14:37:53.083Z,4.30
2018-12-10T14:40:20.523Z,4.20
2018-12-10T14:42:53.421Z,4.20
2018-12-10T14:45:20.833Z,4.20
2018-12-10T14:47:50.674Z,4.20
2018-12-10T14:50:18.019Z,4.20
2018-12-10T14:52:45.377Z,4.20
2018-12-10T14:55:12.622Z,4.20
2018-12-10T14:57:40.073Z,4.10
2018-12-10T15:00:09.214Z,3.80
2018-12-10T15:02:36.522Z,4.20
2018-12-10T15:05:04.533Z,4.20
2018-12-10T15:07:31.750Z,4.20
2018-12-10T15:09:58.947Z,4.20
2018-12-10T15:12:26.235Z,4.10
2018-12-10T15:14:53.525Z,4.10
2018-12-10T15:17:20.719Z,4.50
2018-12-10T15:19:49.511Z,4.00
2018-12-10T15:22:16.755Z,4.00
2018-12-10T15:24:43.971Z,4.10
2018-12-10T15:27:11.215Z,4.10
2018-12-10T15:29:38.413Z,4.10
2018-12-10T15:32:05.651Z,4.10
2018-12-10T15:34:32.851Z,4.10
2018-12-10T15:37:00.080Z,4.10
2018-12-10T15:39:27.279Z,4.10
2018-12-10T15:41:54.602Z,4.10
2018-12-10T15:44:21.846Z,4.10
2018-12-10T15:46:49.198Z,4.10
2018-12-10T15:49:16.416Z,4.10
2018-12-10T15:51:43.793Z,4.10
2018-12-10T15:54:11.003Z,4.10
2018-12-10T15:56:38.231Z,4.20
2018-12-10T15:59:05.501Z,4.20
2018-12-10T16:01:32.775Z,4.20
2018-12-10T16:04:00.067Z,4.20
2018-12-10T16:06:27.303Z,4.10
2018-12-10T16:08:54.522Z,4.10
2018-12-10T16:11:21.795Z,4.00
2018-12-10T16:13:49.078Z,4.10
2018-12-10T16:16:16.323Z,4.10
2018-12-10T16:18:43.518Z,4.10
2018-12-10T16:21:10.755Z,4.20
2018-12-10T16:23:37.950Z,4.30
2018-12-10T16:26:05.287Z,4.30
2018-12-10T16:28:32.521Z,4.30
2018-12-10T16:31:00.349Z,4.30
2018-12-10T16:33:27.566Z,4.30
2018-12-10T16:35:55.159Z,4.40
2018-12-10T16:38:22.346Z,4.30
2018-12-10T16:40:49.593Z,4.30
2018-12-10T16:43:16.818Z,4.30
2018-12-10T16:45:44.134Z,4.30
2018-12-10T16:48:11.457Z,4.30
2018-12-10T16:50:38.678Z,4.20
2018-12-10T16:53:06.035Z,4.20
2018-12-10T16:55:33.369Z,4.10
2018-12-10T16:58:00.574Z,4.10
2018-12-10T17:00:27.894Z,4.00
2018-12-10T17:02:55.234Z,4.10
2018-12-10T17:05:27.067Z,4.10
2018-12-10T17:07:56.099Z,4.10
2018-12-10T17:10:24.205Z,3.90
2018-12-10T17:16:01.335Z,4.20
2018-12-10T17:18:37.332Z,4.20
2018-12-10T17:21:04.810Z,4.00
2018-12-10T17:23:35.731Z,3.80
2018-12-10T17:26:02.974Z,4.10
2018-12-10T17:28:30.404Z,3.70
2018-12-10T17:30:57.654Z,3.70
2018-12-10T17:35:52.098Z,3.40
2018-12-10T17:38:19.334Z,3.50
2018-12-10T17:40:46.585Z,3.50
2018-12-10T17:43:13.816Z,3.50
2018-12-10T17:45:41.203Z,3.50
2018-12-10T17:48:09.186Z,3.50
2018-12-10T17:50:36.825Z,3.50
2018-12-10T17:53:04.178Z,3.60
2018-12-10T17:55:31.421Z,3.50
2018-12-10T17:57:58.682Z,3.40
2018-12-10T18:00:26.101Z,3.40
2018-12-10T18:02:53.583Z,3.50
2018-12-10T18:05:20.852Z,3.40
2018-12-10T18:07:48.702Z,3.40
2018-12-10T18:10:16.106Z,3.30
2018-12-10T18:12:43.315Z,3.00
2018-12-10T18:15:10.595Z,2.80
2018-12-10T18:17:52.278Z,2.30
2018-12-10T18:20:23.674Z,2.20
2018-12-10T18:22:50.941Z,2.10
2018-12-10T18:25:18.252Z,2.20
2018-12-10T18:27:45.443Z,2.20
2018-12-10T18:30:12.917Z,2.00
2018-12-10T18:32:40.218Z,2.10
2018-12-10T18:35:09.462Z,2.10
2018-12-10T18:37:36.771Z,2.20
2018-12-10T18:40:06.134Z,2.20
2018-12-10T18:42:33.408Z,3.10
2018-12-10T18:45:00.637Z,2.40
2018-12-10T18:47:27.838Z,2.50
2018-12-10T18:49:55.017Z,2.50
2018-12-10T18:52:22.641Z,2.40
2018-12-10T18:54:49.970Z,2.30
2018-12-10T18:57:17.199Z,2.30
2018-12-10T18:59:44.813Z,2.30
2018-12-10T19:02:12.137Z,2.40
2018-12-10T19:04:39.352Z,2.50
2018-12-10T19:07:06.643Z,2.50
2018-12-10T19:09:33.977Z,2.60
2018-12-10T19:12:01.248Z,2.40
2018-12-10T19:14:28.442Z,2.40
2018-12-10T19:16:55.776Z,2.40
2018-12-10T19:19:23.218Z,2.40
2018-12-10T19:21:50.794Z,3.90
2018-12-10T19:24:18.062Z,2.40
2018-12-10T19:26:45.306Z,2.40
2018-12-10T19:29:12.601Z,2.50
2018-12-10T19:31:39.826Z,3.40
2018-12-10T19:34:07.038Z,2.60
2018-12-10T19:36:34.376Z,2.60
2018-12-10T19:39:02.308Z,2.70
2018-12-10T19:41:29.717Z,2.70
2018-12-10T19:43:57.027Z,2.70
2018-12-10T19:46:24.385Z,2.70
2018-12-10T19:48:51.702Z,2.60
2018-12-10T19:51:18.954Z,2.60
2018-12-10T19:53:46.138Z,2.70
2018-12-10T19:56:13.485Z,2.70
2018-12-10T19:58:40.821Z,2.70
2018-12-10T20:01:08.395Z,2.70
2018-12-10T20:03:35.674Z,2.70
2018-12-10T20:06:08.719Z,2.70
2018-12-10T20:08:36.071Z,2.70
2018-12-10T20:11:03.407Z,2.60
2018-12-10T20:13:30.634Z,2.60
2018-12-10T20:15:57.905Z,2.50
2018-12-10T20:18:25.146Z,2.50
2018-12-10T20:20:52.322Z,1.00
2018-12-10T20:23:19.531Z,2.50
2018-12-10T20:25:46.728Z,2.60
2018-12-10T20:28:13.922Z,2.60
2018-12-10T20:30:41.425Z,2.70
2018-12-10T20:33:08.747Z,2.60
2018-12-10T20:35:36.099Z,2.60
2018-12-10T20:38:03.515Z,2.60
2018-12-10T20:40:30.771Z,2.50
2018-12-10T20:42:57.967Z,2.50
2018-12-10T20:45:25.214Z,2.50
2018-12-10T20:47:52.410Z,2.40
2018-12-10T20:50:19.758Z,2.40
2018-12-10T20:52:46.961Z,2.40
2018-12-10T20:55:14.158Z,2.30
2018-12-10T20:57:41.668Z,2.30
2018-12-10T21:00:09.124Z,2.30
2018-12-10T21:02:36.379Z,2.30
2018-12-10T21:05:04.056Z,2.30
2018-12-10T21:07:31.374Z,2.30
2018-12-10T21:09:58.590Z,2.30
2018-12-10T21:12:25.823Z,2.30
2018-12-10T21:14:53.154Z,2.30
2018-12-10T21:17:20.343Z,2.20
2018-12-10T21:19:47.607Z,2.20
2018-12-10T21:22:14.971Z,2.20
2018-12-10T21:24:42.218Z,2.20
2018-12-10T21:27:09.973Z,2.20
2018-12-10T21:29:38.035Z,2.20
2018-12-10T21:32:05.291Z,2.20
2018-12-10T21:34:32.528Z,2.20
2018-12-10T21:37:00.226Z,2.20
2018-12-10T21:39:27.451Z,2.20
2018-12-10T21:41:54.657Z,2.30
2018-12-10T21:44:21.874Z,2.40
2018-12-10T21:46:49.078Z,2.40
2018-12-10T21:49:16.853Z,2.40
2018-12-10T21:51:44.055Z,2.50
2018-12-10T21:54:11.276Z,2.50
2018-12-10T21:56:38.605Z,2.50
2018-12-10T21:59:05.813Z,2.50
2018-12-10T22:01:33.018Z,2.60
2018-12-10T22:04:00.445Z,2.60
2018-12-10T22:06:27.767Z,2.60
2018-12-10T22:08:54.961Z,2.60
2018-12-10T22:11:22.191Z,2.60
2018-12-10T22:13:49.376Z,2.60
2018-12-10T22:16:16.591Z,2.70
2018-12-10T22:18:43.778Z,2.70
2018-12-10T22:21:11.002Z,2.70
2018-12-10T22:23:38.185Z,2.70
2018-12-10T22:26:05.417Z,2.70
2018-12-10T22:28:32.613Z,2.70
2018-12-10T22:30:59.825Z,2.70
2018-12-10T22:33:27.193Z,2.70
2018-12-10T22:35:54.470Z,2.70
2018-12-10T22:38:21.739Z,2.80
2018-12-10T22:40:48.971Z,2.80
2018-12-10T22:43:16.158Z,2.80
2018-12-10T22:45:43.370Z,2.80
2018-12-10T22:48:10.554Z,2.80
2018-12-10T22:50:37.894Z,2.70
2018-12-10T22:53:05.138Z,2.70
2018-12-10T22:55:32.463Z,2.70
2018-12-10T22:58:00.018Z,2.70
2018-12-10T23:00:33.311Z,2.70
2018-12-10T23:03:00.542Z,2.70
2018-12-10T23:05:27.755Z,2.70
2018-12-10T23:07:55.322Z,2.70
2018-12-10T23:10:22.530Z,2.80
2018-12-10T23:12:49.743Z,2.80
2018-12-10T23:15:16.927Z,2.80
2018-12-10T23:17:44.182Z,2.80
2018-12-10T23:20:11.625Z,2.80
2018-12-10T23:22:39.058Z,2.80
2018-12-10T23:25:06.362Z,2.80
2018-12-10T23:27:33.564Z,2.90
2018-12-10T23:30:00.786Z,2.90
2018-12-10T23:32:27.955Z,2.90
2018-12-10T23:34:55.162Z,2.90
2018-12-10T23:37:22.390Z,2.90
2018-12-10T23:39:49.715Z,2.90
2018-12-10T23:42:16.926Z,2.90
2018-12-10T23:44:49.776Z,2.90
2018-12-10T23:47:17.125Z,2.90
2018-12-10T23:49:44.314Z,2.90
2018-12-10T23:52:11.547Z,3.00
2018-12-10T23:54:38.982Z,2.90
2018-12-10T23:57:06.208Z,3.00
2018-12-10T23:59:33.413Z,3.00
